createdAt,value
2022-07-26T00:01:51.728Z,100.00
2022-07-26T00:04:22.214Z,100.00
2022-07-26T00:06:55.116Z,100.00
2022-07-26T00:09:25.386Z,100.00
2022-07-26T00:11:55.706Z,100.00
2022-07-26T00:14:26.010Z,100.00
2022-07-26T00:16:56.386Z,100.00
2022-07-26T00:19:26.698Z,100.00
2022-07-26T00:22:11.638Z,100.00
2022-07-26T00:24:42.568Z,100.00
2022-07-26T00:27:12.774Z,100.00
2022-07-26T00:29:43.000Z,100.00
2022-07-26T00:32:13.184Z,100.00
2022-07-26T00:34:43.494Z,100.00
2022-07-26T00:37:20.384Z,100.00
2022-07-26T00:39:51.122Z,100.00
2022-07-26T00:42:21.440Z,100.00
2022-07-26T00:44:51.691Z,100.00
2022-07-26T00:47:21.951Z,100.00
2022-07-26T00:49:52.152Z,100.00
2022-07-26T00:52:25.129Z,100.00
2022-07-26T00:54:56.444Z,100.00
2022-07-26T00:57:26.899Z,100.00
2022-07-26T00:59:57.114Z,100.00
2022-07-26T01:02:27.379Z,100.00
2022-07-26T01:04:57.673Z,100.00
2022-07-26T01:07:30.843Z,100.00
2022-07-26T01:10:01.069Z,100.00
2022-07-26T01:12:31.340Z,100.00
2022-07-26T01:15:01.531Z,100.00
2022-07-26T01:17:31.723Z,100.00
2022-07-26T01:20:05.420Z,100.00
2022-07-26T01:22:38.401Z,100.00
2022-07-26T01:25:10.070Z,100.00
2022-07-26T01:27:42.159Z,100.00
2022-07-26T01:30:14.619Z,100.00
2022-07-26T01:32:44.945Z,100.00
2022-07-26T01:35:15.588Z,100.00
2022-07-26T01:37:48.423Z,100.00
2022-07-26T01:40:18.635Z,100.00
2022-07-26T01:42:48.947Z,100.00
2022-07-26T01:45:19.176Z,100.00
2022-07-26T01:47:50.487Z,100.00
2022-07-26T01:50:21.721Z,100.00
2022-07-26T01:52:54.560Z,100.00
2022-07-26T01:55:25.001Z,100.00
2022-07-26T01:57:55.281Z,100.00
2022-07-26T02:00:25.541Z,100.00
2022-07-26T02:02:56.008Z,100.00
2022-07-26T02:05:26.582Z,100.00
2022-07-26T02:07:59.366Z,100.00
2022-07-26T02:10:51.632Z,100.00
2022-07-26T02:13:22.031Z,100.00
2022-07-26T02:15:52.280Z,100.00
2022-07-26T02:18:22.568Z,100.00
2022-07-26T02:20:52.792Z,100.00
2022-07-26T02:23:26.525Z,100.00
2022-07-26T02:25:57.627Z,100.00
2022-07-26T02:28:27.895Z,100.00
2022-07-26T02:30:58.163Z,100.00
2022-07-26T02:33:28.500Z,100.00
2022-07-26T02:35:58.700Z,100.00
2022-07-26T02:38:31.548Z,100.00
2022-07-26T02:41:01.816Z,100.00
2022-07-26T02:43:32.668Z,100.00
2022-07-26T02:46:02.897Z,100.00
2022-07-26T02:48:33.598Z,100.00
2022-07-26T02:51:03.861Z,100.00
2022-07-26T02:53:36.709Z,100.00
2022-07-26T02:56:07.147Z,100.00
2022-07-26T02:58:37.248Z,100.00
2022-07-26T03:01:07.835Z,100.00
2022-07-26T03:03:38.777Z,100.00
2022-07-26T03:06:09.084Z,100.00
2022-07-26T03:08:41.950Z,100.00
2022-07-26T03:11:12.484Z,100.00
2022-07-26T03:13:42.740Z,100.00
2022-07-26T03:16:16.158Z,100.00
2022-07-26T03:18:48.320Z,100.00
2022-07-26T03:21:18.579Z,100.00
2022-07-26T03:23:51.533Z,100.00
2022-07-26T03:26:21.816Z,100.00
2022-07-26T03:28:52.071Z,100.00
2022-07-26T03:31:23.756Z,100.00
2022-07-26T03:33:54.017Z,100.00
2022-07-26T03:36:24.240Z,100.00
2022-07-26T03:38:57.063Z,100.00
2022-07-26T03:41:27.235Z,100.00
2022-07-26T03:43:57.463Z,100.00
2022-07-26T03:46:27.770Z,100.00
2022-07-26T03:48:58.090Z,100.00
2022-07-26T03:51:28.555Z,100.00
2022-07-26T03:54:01.331Z,100.00
2022-07-26T03:56:34.839Z,100.00
2022-07-26T03:59:08.271Z,100.00
2022-07-26T04:01:42.064Z,100.00
2022-07-26T04:04:13.467Z,100.00
2022-07-26T04:06:44.980Z,100.00
2022-07-26T04:09:18.280Z,100.00
2022-07-26T04:11:48.950Z,100.00
2022-07-26T04:14:19.950Z,100.00
2022-07-26T04:16:50.355Z,100.00
2022-07-26T04:19:20.611Z,100.00
2022-07-26T04:21:50.817Z,100.00
2022-07-26T04:24:25.345Z,100.00
2022-07-26T04:26:56.131Z,100.00
2022-07-26T04:29:26.324Z,100.00
2022-07-26T04:31:56.479Z,100.00
2022-07-26T04:34:26.697Z,100.00
2022-07-26T04:36:56.876Z,100.00
2022-07-26T04:39:29.727Z,100.00
2022-07-26T04:42:00.065Z,100.00
2022-07-26T04:44:30.332Z,100.00
2022-07-26T04:47:00.531Z,100.00
2022-07-26T04:49:31.350Z,100.00
2022-07-26T04:52:01.855Z,100.00
2022-07-26T04:54:34.739Z,100.00
2022-07-26T04:57:04.946Z,100.00
2022-07-26T04:59:35.141Z,100.00
2022-07-26T05:02:05.495Z,100.00
2022-07-26T05:04:35.793Z,100.00
2022-07-26T05:07:06.078Z,100.00
2022-07-26T05:09:38.875Z,100.00
2022-07-26T05:12:10.206Z,100.00
2022-07-26T05:14:40.538Z,100.00
2022-07-26T05:17:11.391Z,100.00
2022-07-26T05:19:47.454Z,100.00
2022-07-26T05:22:19.296Z,100.00
2022-07-26T05:24:52.162Z,100.00
2022-07-26T05:27:22.385Z,100.00
2022-07-26T05:29:52.636Z,100.00
2022-07-26T05:32:22.894Z,100.00
2022-07-26T05:34:53.685Z,100.00
2022-07-26T05:37:23.932Z,100.00
2022-07-26T05:39:56.817Z,100.00
2022-07-26T05:42:27.134Z,100.00
2022-07-26T05:44:57.359Z,100.00
2022-07-26T05:47:28.092Z,100.00
2022-07-26T05:49:58.345Z,100.00
2022-07-26T05:52:28.726Z,100.00
2022-07-26T05:55:02.099Z,100.00
2022-07-26T05:57:32.345Z,100.00
2022-07-26T06:00:02.523Z,100.00
2022-07-26T06:02:32.861Z,100.00
2022-07-26T06:05:03.103Z,100.00
2022-07-26T06:07:33.409Z,100.00
2022-07-26T06:10:06.523Z,100.00
2022-07-26T06:12:36.850Z,100.00
2022-07-26T06:15:15.456Z,100.00
2022-07-26T06:17:46.301Z,100.00
2022-07-26T06:20:16.523Z,100.00
2022-07-26T06:22:46.729Z,100.00
2022-07-26T06:25:19.738Z,100.00
2022-07-26T06:27:49.989Z,100.00
2022-07-26T06:30:20.350Z,100.00
2022-07-26T06:32:50.705Z,100.00
2022-07-26T06:35:20.960Z,100.00
2022-07-26T06:37:51.171Z,100.00
2022-07-26T06:40:24.009Z,100.00
2022-07-26T06:42:54.260Z,100.00
2022-07-26T06:45:24.604Z,100.00
2022-07-26T06:47:54.902Z,100.00
2022-07-26T06:50:26.612Z,100.00
2022-07-26T06:52:56.932Z,100.00
2022-07-26T06:55:29.846Z,100.00
2022-07-26T06:58:00.086Z,100.00
2022-07-26T07:00:30.885Z,100.00
2022-07-26T07:03:01.094Z,100.00
2022-07-26T07:05:31.371Z,100.00
2022-07-26T07:08:01.697Z,100.00
2022-07-26T07:10:35.321Z,100.00
2022-07-26T07:13:06.280Z,100.00
2022-07-26T07:15:36.594Z,100.00
2022-07-26T07:18:06.798Z,100.00
2022-07-26T07:20:37.423Z,100.00
2022-07-26T07:23:07.699Z,100.00
2022-07-26T07:25:40.511Z,98.87
2022-07-26T07:28:10.760Z,100.00
2022-07-26T07:30:41.007Z,100.00
2022-07-26T07:33:22.488Z,86.92
2022-07-26T07:35:54.101Z,79.95
2022-07-26T07:38:24.429Z,79.67
2022-07-26T07:40:57.452Z,85.86
2022-07-26T07:43:27.663Z,85.33
2022-07-26T07:45:57.853Z,83.59
2022-07-26T07:48:28.152Z,80.48
2022-07-26T07:50:58.399Z,82.25
2022-07-26T07:53:30.508Z,88.03
2022-07-26T07:56:04.264Z,82.84
2022-07-26T07:58:34.462Z,80.28
2022-07-26T08:01:04.811Z,78.23
2022-07-26T08:03:38.109Z,74.25
2022-07-26T08:06:12.399Z,77.64
2022-07-26T08:08:43.000Z,73.28
2022-07-26T08:11:16.276Z,69.76
2022-07-26T08:13:48.065Z,67.42
2022-07-26T08:16:18.570Z,69.23
2022-07-26T08:18:57.054Z,68.00
2022-07-26T08:21:29.248Z,66.69
2022-07-26T08:23:59.689Z,64.54
2022-07-26T08:26:32.551Z,66.83
2022-07-26T08:29:02.748Z,66.92
2022-07-26T08:31:33.179Z,66.65
2022-07-26T08:34:03.487Z,68.22
2022-07-26T08:36:33.756Z,63.28
2022-07-26T08:39:04.337Z,64.62
2022-07-26T08:41:40.523Z,62.12
2022-07-26T08:44:11.991Z,62.50
2022-07-26T08:46:43.575Z,63.16
2022-07-26T08:49:15.496Z,63.92
2022-07-26T08:51:47.006Z,62.26
2022-07-26T08:54:18.671Z,62.63
2022-07-26T08:56:56.746Z,64.13
2022-07-26T08:59:26.975Z,68.25
2022-07-26T09:01:59.181Z,63.26
2022-07-26T09:04:32.736Z,63.17
2022-07-26T09:07:07.172Z,63.95
2022-07-26T09:09:39.394Z,58.60
2022-07-26T09:12:23.233Z,56.88
2022-07-26T09:14:53.833Z,55.14
2022-07-26T09:17:26.643Z,54.65
2022-07-26T09:20:10.245Z,54.08
2022-07-26T09:22:41.743Z,52.95
2022-07-26T09:25:27.842Z,52.67
2022-07-26T09:28:00.838Z,52.45
2022-07-26T09:30:32.060Z,51.50
2022-07-26T09:33:05.177Z,52.17
2022-07-26T09:35:50.746Z,52.31
2022-07-26T09:38:22.694Z,52.52
2022-07-26T09:40:55.632Z,49.98
2022-07-26T09:43:39.777Z,46.84
2022-07-26T09:46:11.306Z,48.65
2022-07-26T09:49:08.272Z,46.47
2022-07-26T09:51:40.754Z,43.70
2022-07-26T09:54:11.982Z,43.22
2022-07-26T09:56:50.284Z,43.16
2022-07-26T09:59:24.706Z,42.96
2022-07-26T10:01:56.648Z,44.06
2022-07-26T10:04:27.811Z,43.77
2022-07-26T10:06:58.935Z,48.46
2022-07-26T10:09:34.069Z,49.00
2022-07-26T10:12:06.175Z,48.53
2022-07-26T10:14:48.321Z,51.75
2022-07-26T10:17:49.555Z,56.87
2022-07-26T10:20:50.576Z,58.03
2022-07-26T10:23:42.948Z,55.83
2022-07-26T10:26:45.851Z,54.85
2022-07-26T10:29:26.276Z,54.46
2022-07-26T10:32:23.571Z,58.28
2022-07-26T10:34:53.833Z,60.24
2022-07-26T10:37:28.264Z,60.43
2022-07-26T10:40:21.284Z,59.43
2022-07-26T10:42:51.624Z,58.71
